sensor_id;sensor_type;location;lat;lon;timestamp;pressure;altitude;pressure_sealevel;temperature;humidity
48517;BME280;34310;51.904;4.256;2023-01-25T00:00:51;103889.47;;;16.19;52.79
48517;BME280;34310;51.904;4.256;2023-01-25T00:03:18;103887.22;;;16.13;53.06
48517;BME280;34310;51.904;4.256;2023-01-25T00:05:45;103888.28;;;16.15;53.01
48517;BME280;34310;51.904;4.256;2023-01-25T00:08:12;103876.19;;;16.07;53.01
48517;BME280;34310;51.904;4.256;2023-01-25T00:10:40;103869.78;;;16.03;53.21
48517;BME280;34310;51.904;4.256;2023-01-25T00:13:07;103865.03;;;15.99;53.14
48517;BME280;34310;51.904;4.256;2023-01-25T00:15:34;103866.59;;;15.97;53.18
48517;BME280;34310;51.904;4.256;2023-01-25T00:18:02;103866.16;;;15.93;53.25
48517;BME280;34310;51.904;4.256;2023-01-25T00:20:29;103872.56;;;15.88;53.42
48517;BME280;34310;51.904;4.256;2023-01-25T00:22:56;103867.81;;;15.84;53.54
48517;BME280;34310;51.904;4.256;2023-01-25T00:25:24;103860.63;;;15.81;53.51
48517;BME280;34310;51.904;4.256;2023-01-25T00:27:51;103853.00;;;15.74;53.93
48517;BME280;34310;51.904;4.256;2023-01-25T00:30:18;103855.94;;;15.68;53.97
48517;BME280;34310;51.904;4.256;2023-01-25T00:32:57;103846.28;;;15.59;54.17
48517;BME280;34310;51.904;4.256;2023-01-25T00:35:31;103849.59;;;15.58;54.50
48517;BME280;34310;51.904;4.256;2023-01-25T00:38:02;103849.63;;;15.49;54.45
48517;BME280;34310;51.904;4.256;2023-01-25T00:40:32;103839.84;;;15.46;54.52
48517;BME280;34310;51.904;4.256;2023-01-25T00:42:59;103839.53;;;15.43;54.58
48517;BME280;34310;51.904;4.256;2023-01-25T00:45:27;103843.22;;;15.37;54.78
48517;BME280;34310;51.904;4.256;2023-01-25T00:47:55;103846.88;;;15.30;54.89
48517;BME280;34310;51.904;4.256;2023-01-25T00:50:22;103839.53;;;15.26;54.97
48517;BME280;34310;51.904;4.256;2023-01-25T00:52:50;103838.31;;;15.23;55.01
48517;BME280;34310;51.904;4.256;2023-01-25T00:55:17;103836.31;;;15.20;55.11
48517;BME280;34310;51.904;4.256;2023-01-25T00:57:44;103839.09;;;15.13;55.35
48517;BME280;34310;51.904;4.256;2023-01-25T01:00:12;103840.59;;;15.02;55.68
48517;BME280;34310;51.904;4.256;2023-01-25T01:02:39;103836.50;;;15.04;55.44
48517;BME280;34310;51.904;4.256;2023-01-25T01:05:07;103841.50;;;15.03;55.47
48517;BME280;34310;51.904;4.256;2023-01-25T01:07:35;103840.28;;;14.99;55.74
48517;BME280;34310;51.904;4.256;2023-01-25T01:10:02;103837.22;;;14.95;55.78
48517;BME280;34310;51.904;4.256;2023-01-25T01:12:30;103833.25;;;14.90;55.97
48517;BME280;34310;51.904;4.256;2023-01-25T01:14:57;103840.13;;;14.80;56.17
48517;BME280;34310;51.904;4.256;2023-01-25T01:17:25;103834.03;;;14.80;56.14
48517;BME280;34310;51.904;4.256;2023-01-25T01:19:52;103831.69;;;14.74;56.29
48517;BME280;34310;51.904;4.256;2023-01-25T01:22:19;103833.06;;;14.71;56.40
48517;BME280;34310;51.904;4.256;2023-01-25T01:24:47;103839.63;;;14.67;56.49
48517;BME280;34310;51.904;4.256;2023-01-25T01:27:15;103836.72;;;14.64;56.65
48517;BME280;34310;51.904;4.256;2023-01-25T01:29:42;103836.09;;;14.58;56.64
48517;BME280;34310;51.904;4.256;2023-01-25T01:32:10;103832.59;;;14.57;56.85
48517;BME280;34310;51.904;4.256;2023-01-25T01:34:37;103833.81;;;14.52;56.97
48517;BME280;34310;51.904;4.256;2023-01-25T01:37:05;103834.88;;;14.54;56.82
48517;BME280;34310;51.904;4.256;2023-01-25T01:39:32;103830.75;;;14.48;56.99
48517;BME280;34310;51.904;4.256;2023-01-25T01:41:59;103833.19;;;14.46;57.08
48517;BME280;34310;51.904;4.256;2023-01-25T01:44:49;103834.34;;;14.41;57.23
48517;BME280;34310;51.904;4.256;2023-01-25T01:47:29;103827.59;;;14.35;57.25
48517;BME280;34310;51.904;4.256;2023-01-25T01:50:13;103828.97;;;14.40;57.25
48517;BME280;34310;51.904;4.256;2023-01-25T01:52:43;103831.81;;;14.59;56.56
48517;BME280;34310;51.904;4.256;2023-01-25T01:55:13;103825.72;;;14.67;56.19
48517;BME280;34310;51.904;4.256;2023-01-25T01:57:49;103830.78;;;14.74;56.10
48517;BME280;34310;51.904;4.256;2023-01-25T02:00:29;103834.94;;;14.80;56.02
48517;BME280;34310;51.904;4.256;2023-01-25T02:02:59;103829.44;;;14.86;56.06
48517;BME280;34310;51.904;4.256;2023-01-25T02:07:55;103825.44;;;14.98;56.08
48517;BME280;34310;51.904;4.256;2023-01-25T02:10:24;103826.66;;;15.02;56.12
48517;BME280;34310;51.904;4.256;2023-01-25T02:12:54;103826.41;;;15.07;56.12
48517;BME280;34310;51.904;4.256;2023-01-25T02:15:21;103825.16;;;15.12;56.02
48517;BME280;34310;51.904;4.256;2023-01-25T02:17:49;103821.19;;;15.16;55.87
48517;BME280;34310;51.904;4.256;2023-01-25T02:20:39;103814.44;;;15.18;55.92
48517;BME280;34310;51.904;4.256;2023-01-25T02:25:41;103805.53;;;15.25;55.84
48517;BME280;34310;51.904;4.256;2023-01-25T02:28:14;103805.69;;;15.26;55.70
48517;BME280;34310;51.904;4.256;2023-01-25T02:30:44;103808.59;;;15.29;55.70
48517;BME280;34310;51.904;4.256;2023-01-25T02:33:13;103813.03;;;15.30;55.60
48517;BME280;34310;51.904;4.256;2023-01-25T02:35:43;103802.03;;;15.33;55.60
48517;BME280;34310;51.904;4.256;2023-01-25T02:38:14;103802.97;;;15.33;55.62
48517;BME280;34310;51.904;4.256;2023-01-25T02:40:52;103803.09;;;15.35;55.58
48517;BME280;34310;51.904;4.256;2023-01-25T02:43:23;103800.50;;;15.35;55.65
48517;BME280;34310;51.904;4.256;2023-01-25T02:46:00;103791.94;;;15.36;55.61
48517;BME280;34310;51.904;4.256;2023-01-25T02:48:29;103797.28;;;15.37;55.54
48517;BME280;34310;51.904;4.256;2023-01-25T02:50:57;103790.38;;;15.38;55.46
48517;BME280;34310;51.904;4.256;2023-01-25T02:53:24;103793.00;;;15.38;55.48
48517;BME280;34310;51.904;4.256;2023-01-25T02:55:51;103784.25;;;15.37;55.39
48517;BME280;34310;51.904;4.256;2023-01-25T02:58:18;103785.19;;;15.38;55.44
48517;BME280;34310;51.904;4.256;2023-01-25T03:00:46;103779.81;;;15.36;55.35
48517;BME280;34310;51.904;4.256;2023-01-25T03:03:13;103778.91;;;15.36;55.37
48517;BME280;34310;51.904;4.256;2023-01-25T03:05:40;103780.75;;;15.37;55.37
48517;BME280;34310;51.904;4.256;2023-01-25T03:08:08;103777.06;;;15.35;55.36
48517;BME280;34310;51.904;4.256;2023-01-25T03:10:35;103772.44;;;15.32;55.27
48517;BME280;34310;51.904;4.256;2023-01-25T03:13:02;103770.63;;;15.31;55.37
48517;BME280;34310;51.904;4.256;2023-01-25T03:15:30;103773.06;;;15.30;55.36
48517;BME280;34310;51.904;4.256;2023-01-25T03:17:57;103772.00;;;15.28;55.29
48517;BME280;34310;51.904;4.256;2023-01-25T03:20:24;103776.91;;;15.25;55.45
48517;BME280;34310;51.904;4.256;2023-01-25T03:22:52;103764.53;;;15.22;55.51
48517;BME280;34310;51.904;4.256;2023-01-25T03:25:20;103767.75;;;15.19;55.41
48517;BME280;34310;51.904;4.256;2023-01-25T03:27:48;103763.00;;;15.15;55.59
48517;BME280;34310;51.904;4.256;2023-01-25T03:30:15;103757.50;;;15.12;55.51
48517;BME280;34310;51.904;4.256;2023-01-25T03:32:42;103759.94;;;15.11;55.57
48517;BME280;34310;51.904;4.256;2023-01-25T03:35:10;103755.06;;;15.05;55.65
48517;BME280;34310;51.904;4.256;2023-01-25T03:37:37;103755.84;;;15.04;55.68
48517;BME280;34310;51.904;4.256;2023-01-25T03:40:05;103747.69;;;15.01;55.71
48517;BME280;34310;51.904;4.256;2023-01-25T03:42:32;103744.63;;;14.97;55.80
48517;BME280;34310;51.904;4.256;2023-01-25T03:44:59;103744.34;;;14.94;55.92
48517;BME280;34310;51.904;4.256;2023-01-25T03:47:27;103741.44;;;14.91;56.00
48517;BME280;34310;51.904;4.256;2023-01-25T03:49:54;103743.75;;;14.87;56.08
48517;BME280;34310;51.904;4.256;2023-01-25T03:55:46;103739.31;;;14.78;56.28
48517;BME280;34310;51.904;4.256;2023-01-25T03:58:15;103746.03;;;14.76;56.19
48517;BME280;34310;51.904;4.256;2023-01-25T04:00:42;103741.28;;;14.72;56.44
48517;BME280;34310;51.904;4.256;2023-01-25T04:03:10;103745.25;;;14.68;56.45
48517;BME280;34310;51.904;4.256;2023-01-25T04:05:37;103741.44;;;14.65;56.62
48517;BME280;34310;51.904;4.256;2023-01-25T04:08:04;103735.78;;;14.60;56.63
48517;BME280;34310;51.904;4.256;2023-01-25T04:10:32;103735.78;;;14.60;56.62
48517;BME280;34310;51.904;4.256;2023-01-25T04:12:59;103742.19;;;14.55;56.78
48517;BME280;34310;51.904;4.256;2023-01-25T04:15:27;103733.94;;;14.50;56.78
48517;BME280;34310;51.904;4.256;2023-01-25T04:17:54;103731.19;;;14.49;56.83
48517;BME280;34310;51.904;4.256;2023-01-25T04:20:22;103733.63;;;14.47;56.98
48517;BME280;34310;51.904;4.256;2023-01-25T04:22:52;103731.63;;;14.45;57.00
48517;BME280;34310;51.904;4.256;2023-01-25T04:25:19;103729.78;;;14.44;57.01
48517;BME280;34310;51.904;4.256;2023-01-25T04:27:48;103730.19;;;14.40;57.12
48517;BME280;34310;51.904;4.256;2023-01-25T04:30:15;103725.00;;;14.40;57.21
48517;BME280;34310;51.904;4.256;2023-01-25T04:32:43;103719.19;;;14.34;57.19
48517;BME280;34310;51.904;4.256;2023-01-25T04:35:10;103719.81;;;14.31;57.31
48517;BME280;34310;51.904;4.256;2023-01-25T04:37:38;103717.66;;;14.27;57.45
48517;BME280;34310;51.904;4.256;2023-01-25T04:40:06;103711.25;;;14.41;56.91
48517;BME280;34310;51.904;4.256;2023-01-25T04:42:34;103712.06;;;14.48;56.64
48517;BME280;34310;51.904;4.256;2023-01-25T04:45:02;103719.72;;;14.55;56.63
48517;BME280;34310;51.904;4.256;2023-01-25T04:47:29;103720.94;;;14.59;56.46
48517;BME280;34310;51.904;4.256;2023-01-25T04:49:57;103707.63;;;14.65;56.44
48517;BME280;34310;51.904;4.256;2023-01-25T04:52:24;103709.75;;;14.69;56.75
48517;BME280;34310;51.904;4.256;2023-01-25T04:54:51;103713.00;;;14.75;56.73
48517;BME280;34310;51.904;4.256;2023-01-25T04:57:19;103708.25;;;14.79;56.78
48517;BME280;34310;51.904;4.256;2023-01-25T04:59:46;103705.19;;;14.83;56.59
48517;BME280;34310;51.904;4.256;2023-01-25T05:02:13;103698.59;;;14.87;56.63
48517;BME280;34310;51.904;4.256;2023-01-25T05:04:41;103697.38;;;14.92;56.66
48517;BME280;34310;51.904;4.256;2023-01-25T05:07:08;103701.94;;;14.95;56.35
48517;BME280;34310;51.904;4.256;2023-01-25T05:09:36;103689.25;;;14.98;56.31
48517;BME280;34310;51.904;4.256;2023-01-25T05:12:03;103693.81;;;15.00;56.40
48517;BME280;34310;51.904;4.256;2023-01-25T05:14:38;103683.72;;;15.03;56.40
48517;BME280;34310;51.904;4.256;2023-01-25T05:17:06;103702.09;;;15.05;56.38
48517;BME280;34310;51.904;4.256;2023-01-25T05:19:34;103700.56;;;15.07;56.30
48517;BME280;34310;51.904;4.256;2023-01-25T05:22:03;103707.75;;;15.09;56.29
48517;BME280;34310;51.904;4.256;2023-01-25T05:24:34;103705.16;;;15.09;56.17
48517;BME280;34310;51.904;4.256;2023-01-25T05:27:02;103698.41;;;15.11;56.04
48517;BME280;34310;51.904;4.256;2023-01-25T05:29:40;103700.41;;;15.14;56.05
48517;BME280;34310;51.904;4.256;2023-01-25T05:32:09;103698.72;;;15.14;56.20
48517;BME280;34310;51.904;4.256;2023-01-25T05:34:37;103695.19;;;15.14;56.15
48517;BME280;34310;51.904;4.256;2023-01-25T05:37:07;103696.09;;;15.14;56.11
48517;BME280;34310;51.904;4.256;2023-01-25T05:39:35;103689.22;;;15.15;56.00
48517;BME280;34310;51.904;4.256;2023-01-25T05:42:02;103685.69;;;15.14;56.01
48517;BME280;34310;51.904;4.256;2023-01-25T05:44:29;103678.81;;;15.15;56.03
48517;BME280;34310;51.904;4.256;2023-01-25T05:46:56;103681.41;;;15.15;55.96
48517;BME280;34310;51.904;4.256;2023-01-25T05:49:24;103684.94;;;15.15;55.98
48517;BME280;34310;51.904;4.256;2023-01-25T05:51:51;103685.69;;;15.14;55.96
48517;BME280;34310;51.904;4.256;2023-01-25T05:54:18;103683.88;;;15.13;55.82
48517;BME280;34310;51.904;4.256;2023-01-25T05:56:48;103692.44;;;15.12;55.82
48517;BME280;34310;51.904;4.256;2023-01-25T05:59:16;103697.78;;;15.14;55.72
48517;BME280;34310;51.904;4.256;2023-01-25T06:01:43;103701.03;;;15.11;55.78
48517;BME280;34310;51.904;4.256;2023-01-25T06:04:15;103697.06;;;15.06;55.75
48517;BME280;34310;51.904;4.256;2023-01-25T06:06:42;103699.50;;;15.05;55.80
48517;BME280;34310;51.904;4.256;2023-01-25T06:09:12;103700.84;;;15.01;55.71
48517;BME280;34310;51.904;4.256;2023-01-25T06:11:42;103704.06;;;14.99;55.74
48517;BME280;34310;51.904;4.256;2023-01-25T06:14:11;103700.25;;;14.95;55.86
48517;BME280;34310;51.904;4.256;2023-01-25T06:16:38;103706.09;;;14.93;55.86
48517;BME280;34310;51.904;4.256;2023-01-25T06:19:06;103710.06;;;14.89;55.91
48517;BME280;34310;51.904;4.256;2023-01-25T06:21:34;103703.66;;;14.85;55.97
48517;BME280;34310;51.904;4.256;2023-01-25T06:24:05;103702.59;;;14.83;55.99
48517;BME280;34310;51.904;4.256;2023-01-25T06:26:32;103692.66;;;14.79;56.14
48517;BME280;34310;51.904;4.256;2023-01-25T06:29:00;103691.25;;;14.74;56.16
48517;BME280;34310;51.904;4.256;2023-01-25T06:31:27;103690.78;;;14.70;56.22
48517;BME280;34310;51.904;4.256;2023-01-25T06:33:54;103679.94;;;14.65;56.48
48517;BME280;34310;51.904;4.256;2023-01-25T06:36:22;103683.31;;;14.64;56.35
48517;BME280;34310;51.904;4.256;2023-01-25T06:38:50;103682.09;;;14.61;56.54
48517;BME280;34310;51.904;4.256;2023-01-25T06:41:18;103689.13;;;14.53;56.71
48517;BME280;34310;51.904;4.256;2023-01-25T06:43:48;103692.19;;;14.49;56.84
48517;BME280;34310;51.904;4.256;2023-01-25T06:46:16;103692.97;;;14.48;56.75
48517;BME280;34310;51.904;4.256;2023-01-25T06:48:44;103686.50;;;14.44;56.87
48517;BME280;34310;51.904;4.256;2023-01-25T06:51:13;103689.53;;;14.40;56.91
48517;BME280;34310;51.904;4.256;2023-01-25T06:53:42;103685.09;;;14.39;56.90
48517;BME280;34310;51.904;4.256;2023-01-25T06:56:21;103684.19;;;14.39;57.01
48517;BME280;34310;51.904;4.256;2023-01-25T06:58:49;103686.47;;;14.36;57.06
48517;BME280;34310;51.904;4.256;2023-01-25T07:01:22;103685.88;;;14.30;57.20
48517;BME280;34310;51.904;4.256;2023-01-25T07:03:56;103684.50;;;14.24;57.25
48517;BME280;34310;51.904;4.256;2023-01-25T07:06:25;103685.72;;;14.37;56.88
48517;BME280;34310;51.904;4.256;2023-01-25T07:09:04;103684.81;;;14.45;56.62
48517;BME280;34310;51.904;4.256;2023-01-25T07:11:32;103681.78;;;14.49;56.59
48517;BME280;34310;51.904;4.256;2023-01-25T07:14:00;103682.25;;;14.53;56.56
48517;BME280;34310;51.904;4.256;2023-01-25T07:16:27;103683.47;;;14.57;56.68
48517;BME280;34310;51.904;4.256;2023-01-25T07:18:55;103686.53;;;14.62;56.75
48517;BME280;34310;51.904;4.256;2023-01-25T07:21:23;103682.53;;;14.65;56.65
48517;BME280;34310;51.904;4.256;2023-01-25T07:23:51;103684.06;;;14.72;56.97
48517;BME280;34310;51.904;4.256;2023-01-25T07:26:20;103684.69;;;14.78;56.86
48517;BME280;34310;51.904;4.256;2023-01-25T07:28:48;103682.53;;;14.82;56.74
48517;BME280;34310;51.904;4.256;2023-01-25T07:31:17;103681.78;;;14.83;56.15
48517;BME280;34310;51.904;4.256;2023-01-25T07:33:48;103679.19;;;14.83;55.85
48517;BME280;34310;51.904;4.256;2023-01-25T07:36:16;103679.19;;;14.83;55.84
48517;BME280;34310;51.904;4.256;2023-01-25T07:38:46;103668.00;;;14.84;55.79
48517;BME280;34310;51.904;4.256;2023-01-25T07:41:14;103668.00;;;14.84;55.98
48517;BME280;34310;51.904;4.256;2023-01-25T07:43:42;103663.56;;;14.83;56.10
48517;BME280;34310;51.904;4.256;2023-01-25T07:46:11;103663.56;;;14.83;55.74
48517;BME280;34310;51.904;4.256;2023-01-25T07:48:43;103655.63;;;14.82;55.92
48517;BME280;34310;51.904;4.256;2023-01-25T07:51:11;103657.16;;;14.80;55.86
48517;BME280;34310;51.904;4.256;2023-01-25T07:53:52;103651.03;;;14.79;56.16
48517;BME280;34310;51.904;4.256;2023-01-25T07:56:22;103652.56;;;14.77;55.97
48517;BME280;34310;51.904;4.256;2023-01-25T07:58:51;103645.53;;;14.76;55.90
48517;BME280;34310;51.904;4.256;2023-01-25T08:01:21;103654.84;;;14.74;56.02
48517;BME280;34310;51.904;4.256;2023-01-25T08:03:50;103645.97;;;14.72;55.98
48517;BME280;34310;51.904;4.256;2023-01-25T08:06:26;103641.53;;;14.71;55.99
48517;BME280;34310;51.904;4.256;2023-01-25T08:08:58;103636.19;;;14.70;55.93
48517;BME280;34310;51.904;4.256;2023-01-25T08:11:28;103645.53;;;14.68;56.10
48517;BME280;34310;51.904;4.256;2023-01-25T08:13:56;103649.81;;;14.67;56.01
48517;BME280;34310;51.904;4.256;2023-01-25T08:16:25;103651.34;;;14.65;56.02
48517;BME280;34310;51.904;4.256;2023-01-25T08:18:55;103651.03;;;14.62;56.08
48517;BME280;34310;51.904;4.256;2023-01-25T08:21:24;103648.44;;;14.62;55.99
48517;BME280;34310;51.904;4.256;2023-01-25T08:23:51;103643.09;;;14.61;56.05
48517;BME280;34310;51.904;4.256;2023-01-25T08:26:19;103640.34;;;14.59;56.02
48517;BME280;34310;51.904;4.256;2023-01-25T08:28:47;103645.25;;;14.56;56.09
48517;BME280;34310;51.904;4.256;2023-01-25T08:31:17;103640.03;;;14.56;56.10
48517;BME280;34310;51.904;4.256;2023-01-25T08:33:47;103645.25;;;14.56;56.20
48517;BME280;34310;51.904;4.256;2023-01-25T08:36:15;103647.84;;;14.56;56.18
48517;BME280;34310;51.904;4.256;2023-01-25T08:38:47;103642.63;;;14.56;56.14
48517;BME280;34310;51.904;4.256;2023-01-25T08:41:18;103639.28;;;14.57;56.16
48517;BME280;34310;51.904;4.256;2023-01-25T08:43:46;103626.41;;;14.59;56.30
48517;BME280;34310;51.904;4.256;2023-01-25T08:46:15;103636.97;;;14.60;56.28
48517;BME280;34310;51.904;4.256;2023-01-25T08:48:43;103640.63;;;14.62;56.44
48517;BME280;34310;51.904;4.256;2023-01-25T08:51:15;103640.78;;;14.64;56.35
48517;BME280;34310;51.904;4.256;2023-01-25T08:53:42;103649.50;;;14.64;56.38
48517;BME280;34310;51.904;4.256;2023-01-25T08:56:12;103643.53;;;14.65;56.41
48517;BME280;34310;51.904;4.256;2023-01-25T08:58:42;103643.53;;;14.65;56.21
48517;BME280;34310;51.904;4.256;2023-01-25T09:01:12;103634.19;;;14.67;56.38
48517;BME280;34310;51.904;4.256;2023-01-25T09:03:42;103636.81;;;14.67;56.40
48517;BME280;34310;51.904;4.256;2023-01-25T09:06:11;103632.53;;;14.68;56.33
48517;BME280;34310;51.904;4.256;2023-01-25T09:08:38;103633.44;;;14.68;56.21
48517;BME280;34310;51.904;4.256;2023-01-25T09:11:08;103626.41;;;14.67;56.19
48517;BME280;34310;51.904;4.256;2023-01-25T09:13:36;103623.66;;;14.66;56.34
48517;BME280;34310;51.904;4.256;2023-01-25T09:16:07;103617.69;;;14.67;56.33
48517;BME280;34310;51.904;4.256;2023-01-25T09:18:37;103615.84;;;14.66;56.19
48517;BME280;34310;51.904;4.256;2023-01-25T09:21:13;103613.09;;;14.64;56.37
48517;BME280;34310;51.904;4.256;2023-01-25T09:23:41;103613.25;;;14.66;56.36
48517;BME280;34310;51.904;4.256;2023-01-25T09:26:23;103607.91;;;14.64;56.33
48517;BME280;34310;51.904;4.256;2023-01-25T09:28:52;103614.63;;;14.62;56.23
48517;BME280;34310;51.904;4.256;2023-01-25T09:31:21;103600.56;;;14.60;56.36
48517;BME280;34310;51.904;4.256;2023-01-25T09:33:51;103601.47;;;14.61;56.30
48517;BME280;34310;51.904;4.256;2023-01-25T09:36:19;103597.97;;;14.60;56.39
48517;BME280;34310;51.904;4.256;2023-01-25T09:38:47;103603.03;;;14.59;56.43
48517;BME280;34310;51.904;4.256;2023-01-25T09:55:14;103583.16;;;14.50;56.41
48517;BME280;34310;51.904;4.256;2023-01-25T09:57:44;103580.56;;;14.50;56.39
48517;BME280;34310;51.904;4.256;2023-01-25T10:00:27;103575.50;;;14.52;56.36
48517;BME280;34310;51.904;4.256;2023-01-25T10:03:10;103567.84;;;14.53;56.50
48517;BME280;34310;51.904;4.256;2023-01-25T10:05:48;103560.22;;;14.55;56.59
48517;BME280;34310;51.904;4.256;2023-01-25T10:08:39;103559.59;;;14.57;56.44
48517;BME280;34310;51.904;4.256;2023-01-25T10:11:25;103551.94;;;14.59;56.51
48517;BME280;34310;51.904;4.256;2023-01-25T10:13:54;103553.78;;;14.60;56.43
48517;BME280;34310;51.904;4.256;2023-01-25T10:19:53;103540.00;;;14.61;56.48
48517;BME280;34310;51.904;4.256;2023-01-25T10:22:28;103542.59;;;14.61;56.44
48517;BME280;34310;51.904;4.256;2023-01-25T10:25:18;103537.41;;;14.61;56.47
48517;BME280;34310;51.904;4.256;2023-01-25T10:31:05;103534.81;;;14.61;56.37
48517;BME280;34310;51.904;4.256;2023-01-25T10:33:38;103530.50;;;14.62;56.55
48517;BME280;34310;51.904;4.256;2023-01-25T10:36:08;103517.38;;;14.60;56.48
48517;BME280;34310;51.904;4.256;2023-01-25T10:38:41;103514.75;;;14.60;56.50
48517;BME280;34310;51.904;4.256;2023-01-25T10:43:51;103512.16;;;14.60;56.51
48517;BME280;34310;51.904;4.256;2023-01-25T10:46:39;103509.41;;;14.59;56.43
48517;BME280;34310;51.904;4.256;2023-01-25T10:49:24;103510.19;;;14.57;56.49
48517;BME280;34310;51.904;4.256;2023-01-25T10:51:52;103505.75;;;14.56;56.56
48517;BME280;34310;51.904;4.256;2023-01-25T10:54:21;103503.00;;;14.55;56.58
48517;BME280;34310;51.904;4.256;2023-01-25T10:56:49;103499.34;;;14.53;56.67
48517;BME280;34310;51.904;4.256;2023-01-25T11:01:47;103486.06;;;14.50;56.60
48517;BME280;34310;51.904;4.256;2023-01-25T11:04:34;103477.34;;;14.49;56.55
48517;BME280;34310;51.904;4.256;2023-01-25T11:07:03;103480.72;;;14.48;56.58
48517;BME280;34310;51.904;4.256;2023-01-25T11:09:35;103464.19;;;14.48;56.43
48517;BME280;34310;51.904;4.256;2023-01-25T11:12:23;103467.72;;;14.48;56.48
48517;BME280;34310;51.904;4.256;2023-01-25T11:14:50;103462.38;;;14.47;56.54
48517;BME280;34310;51.904;4.256;2023-01-25T11:17:29;103463.13;;;14.46;56.60
48517;BME280;34310;51.904;4.256;2023-01-25T11:20:09;103453.81;;;14.48;56.48
48517;BME280;34310;51.904;4.256;2023-01-25T11:22:52;103450.44;;;14.49;56.48
48517;BME280;34310;51.904;4.256;2023-01-25T11:25:24;103445.53;;;14.52;56.55
48517;BME280;34310;51.904;4.256;2023-01-25T11:27:58;103439.69;;;14.54;56.67
48517;BME280;34310;51.904;4.256;2023-01-25T11:30:36;103426.84;;;14.56;56.38
48517;BME280;34310;51.904;4.256;2023-01-25T11:33:10;103419.97;;;14.56;56.54
48517;BME280;34310;51.904;4.256;2023-01-25T11:38:32;103401.13;;;14.59;56.48
48517;BME280;34310;51.904;4.256;2023-01-25T11:41:20;103403.75;;;14.59;56.65
48517;BME280;34310;51.904;4.256;2023-01-25T11:49:02;103377.88;;;14.61;56.58
48517;BME280;34310;51.904;4.256;2023-01-25T11:52:00;103386.59;;;14.61;56.55
48517;BME280;34310;51.904;4.256;2023-01-25T11:54:47;103376.19;;;14.61;56.39
48517;BME280;34310;51.904;4.256;2023-01-25T12:05:59;103336.91;;;14.58;56.52
48517;BME280;34310;51.904;4.256;2023-01-25T12:08:49;103337.53;;;14.55;56.54
48517;BME280;34310;51.904;4.256;2023-01-25T12:11:51;103321.94;;;14.55;56.54
48517;BME280;34310;51.904;4.256;2023-01-25T12:25:54;103292.50;;;14.46;56.74
48517;BME280;34310;51.904;4.256;2023-01-25T12:28:42;103282.84;;;14.45;56.63
48517;BME280;34310;51.904;4.256;2023-01-25T12:31:33;103272.28;;;14.44;56.63
48517;BME280;34310;51.904;4.256;2023-01-25T12:34:07;103268.00;;;14.44;56.61
48517;BME280;34310;51.904;4.256;2023-01-25T12:36:42;103260.22;;;14.44;56.60
48517;BME280;34310;51.904;4.256;2023-01-25T12:39:27;103260.06;;;14.43;56.69
48517;BME280;34310;51.904;4.256;2023-01-25T12:42:15;103258.53;;;14.45;56.69
48517;BME280;34310;51.904;4.256;2023-01-25T12:47:34;103252.72;;;14.47;56.62
48517;BME280;34310;51.904;4.256;2023-01-25T12:55:40;103236.94;;;14.54;56.66
48517;BME280;34310;51.904;4.256;2023-01-25T13:01:11;103236.16;;;14.55;56.67
48517;BME280;34310;51.904;4.256;2023-01-25T13:11:54;103212.13;;;14.58;56.57
48517;BME280;34310;51.904;4.256;2023-01-25T13:14:28;103218.09;;;14.57;56.50
48517;BME280;34310;51.904;4.256;2023-01-25T13:19:53;103212.13;;;14.58;56.46
48517;BME280;34310;51.904;4.256;2023-01-25T13:22:52;103206.00;;;14.57;56.62
48517;BME280;34310;51.904;4.256;2023-01-25T13:25:22;103206.78;;;14.56;56.45
48517;BME280;34310;51.904;4.256;2023-01-25T13:27:50;103201.44;;;14.55;56.55
48517;BME280;34310;51.904;4.256;2023-01-25T13:30:33;103195.34;;;14.54;56.55
48517;BME280;34310;51.904;4.256;2023-01-25T13:33:03;103194.41;;;14.54;56.55
48517;BME280;34310;51.904;4.256;2023-01-25T13:35:35;103188.16;;;14.52;56.53
48517;BME280;34310;51.904;4.256;2023-01-25T13:38:23;103182.84;;;14.50;56.54
48517;BME280;34310;51.904;4.256;2023-01-25T13:41:10;103165.28;;;14.48;56.76
48517;BME280;34310;51.904;4.256;2023-01-25T13:43:40;103168.66;;;14.47;56.57
48517;BME280;34310;51.904;4.256;2023-01-25T13:46:11;103164.22;;;14.46;56.63
48517;BME280;34310;51.904;4.256;2023-01-25T13:48:57;103167.56;;;14.45;56.60
48517;BME280;34310;51.904;4.256;2023-01-25T13:51:29;103167.41;;;14.43;56.58
48517;BME280;34310;51.904;4.256;2023-01-25T13:53:59;103163.13;;;14.44;56.63
48517;BME280;34310;51.904;4.256;2023-01-25T13:56:34;103158.84;;;14.44;56.70
48517;BME280;34310;51.904;4.256;2023-01-25T13:59:01;103149.06;;;14.42;56.73
48517;BME280;34310;51.904;4.256;2023-01-25T14:01:30;103148.13;;;14.41;56.72
48517;BME280;34310;51.904;4.256;2023-01-25T14:04:02;103149.22;;;14.43;56.67
48517;BME280;34310;51.904;4.256;2023-01-25T14:06:36;103150.28;;;14.45;56.68
48517;BME280;34310;51.904;4.256;2023-01-25T14:09:17;103151.34;;;14.47;56.64
48517;BME280;34310;51.904;4.256;2023-01-25T14:11:57;103156.84;;;14.50;56.76
48517;BME280;34310;51.904;4.256;2023-01-25T14:14:27;103158.66;;;14.51;56.62
48517;BME280;34310;51.904;4.256;2023-01-25T14:17:15;103151.78;;;14.52;56.72
48517;BME280;34310;51.904;4.256;2023-01-25T14:19:45;103142.44;;;14.54;56.71
48517;BME280;34310;51.904;4.256;2023-01-25T14:22:24;103138.16;;;14.54;56.63
48517;BME280;34310;51.904;4.256;2023-01-25T14:25:13;103133.84;;;14.55;56.70
48517;BME280;34310;51.904;4.256;2023-01-25T14:27:44;103140.88;;;14.56;56.63
48517;BME280;34310;51.904;4.256;2023-01-25T14:30:24;103139.97;;;14.55;56.67
48517;BME280;34310;51.904;4.256;2023-01-25T14:33:16;103138.28;;;14.56;56.62
48517;BME280;34310;51.904;4.256;2023-01-25T14:35:45;103134.78;;;14.55;56.63